Time;durP1;ratioP1;P1;durP2;ratioP2;P2;SDS_P1;SDS_P2;PMS_P1;PMS_P2;Temp;Humidity;BMP_temperature;BMP_pressure;BME280_temperature;BME280_humidity;BME280_pressure;Samples;Min_cycle;Max_cycle;Signal;HPM_P1;HPM_P2
2022/06/07 00:01:19;;;;;;;34.13;12.07;;;25.00;97.10;;;;;;5133728;27;20410;-72
2022/06/07 00:04:23;;;;;;;32.28;11.68;;;25.00;96.90;;;;;;5133853;27;20104;-72
2022/06/07 00:07:27;;;;;;;40.08;12.48;;;25.10;97.00;;;;;;5134158;27;20042;-72
2022/06/07 00:10:31;;;;;;;46.35;12.43;;;25.00;96.80;;;;;;5133641;27;20054;-72
2022/06/07 00:13:35;;;;;;;38.58;12.65;;;24.90;97.00;;;;;;5133802;27;20050;-72
2022/06/07 00:16:39;;;;;;;42.40;11.95;;;24.90;97.00;;;;;;5133813;27;20038;-72
2022/06/07 00:19:43;;;;;;;35.00;11.82;;;24.90;96.50;;;;;;5144918;27;20038;-72
2022/06/07 00:22:47;;;;;;;42.58;12.82;;;24.70;96.60;;;;;;5133581;27;20042;-72
2022/06/07 00:25:54;;;;;;;28.90;12.02;;;24.70;95.70;;;;;;5133718;27;20497;-72
2022/06/07 00:28:59;;;;;;;33.28;12.68;;;24.60;95.50;;;;;;5133591;27;20039;-72
2022/06/07 00:32:05;;;;;;;30.38;11.30;;;24.60;95.10;;;;;;5132914;27;20054;-71
2022/06/07 00:35:10;;;;;;;35.33;11.60;;;24.60;95.10;;;;;;5132708;27;20501;-72
2022/06/07 00:38:14;;;;;;;35.92;10.25;;;24.70;94.60;;;;;;5133173;27;20046;-72
2022/06/07 00:41:18;;;;;;;29.85;11.10;;;24.80;94.20;;;;;;5132410;27;20054;-72
2022/06/07 00:44:25;;;;;;;34.85;10.35;;;25.00;93.70;;;;;;5132596;27;20046;-72
2022/06/07 00:47:31;;;;;;;30.45;10.20;;;24.90;93.30;;;;;;5132932;27;20047;-72
2022/06/07 00:50:58;;;;;;;24.42;8.73;;;24.80;92.70;;;;;;5133177;27;20058;-72
2022/06/07 00:54:02;;;;;;;20.55;9.63;;;24.70;92.30;;;;;;5133254;27;20049;-72
2022/06/07 00:57:07;;;;;;;32.03;9.50;;;24.50;92.50;;;;;;5132405;27;20391;-72
2022/06/07 01:00:17;;;;;;;27.52;9.48;;;24.30;92.50;;;;;;5131519;27;20034;-72
2022/06/07 01:03:24;;;;;;;31.17;8.63;;;24.10;92.30;;;;;;5131861;27;20058;-72
2022/06/07 01:13:22;;;;;;;25.33;8.60;;;24.30;92.60;;;;;;5131935;27;20054;-72
2022/06/07 01:16:28;;;;;;;;;;;24.30;92.60;;;;;;5132427;27;20501;-72
2022/06/07 01:19:33;;;;;;;28.45;9.77;;;24.20;92.80;;;;;;5131614;27;19914;-72
2022/06/07 01:22:37;;;;;;;28.98;8.65;;;24.20;93.40;;;;;;5132724;27;20042;-72
2022/06/07 01:25:41;;;;;;;30.52;10.30;;;24.30;93.10;;;;;;5132188;27;20505;-72
2022/06/07 01:28:45;;;;;;;25.70;9.50;;;24.50;93.80;;;;;;5131987;27;20042;-72
2022/06/07 01:31:51;;;;;;;28.10;9.18;;;24.60;94.50;;;;;;5133346;27;20517;-72
2022/06/07 01:34:59;;;;;;;34.70;10.15;;;24.70;94.70;;;;;;5131649;27;20082;-72
2022/06/07 01:38:03;;;;;;;32.17;10.77;;;24.80;94.80;;;;;;5132662;27;20057;-72
2022/06/07 01:44:39;;;;;;;26.02;9.13;;;24.90;94.50;;;;;;5132177;27;20046;-72
2022/06/07 01:47:44;;;;;;;26.77;9.77;;;24.90;94.60;;;;;;5131352;27;20050;-72
2022/06/07 01:50:48;;;;;;;27.88;9.30;;;25.00;94.60;;;;;;5132253;28;20039;-72
2022/06/07 01:53:52;;;;;;;26.45;9.88;;;25.00;94.70;;;;;;5132490;28;20058;-72
2022/06/07 01:56:57;;;;;;;34.28;9.85;;;24.90;95.00;;;;;;5131317;28;20058;-72
2022/06/07 02:00:04;;;;;;;29.45;9.52;;;24.90;95.00;;;;;;5131247;28;20042;-72
2022/06/07 02:03:17;;;;;;;26.63;10.02;;;25.00;94.80;;;;;;5132543;28;20042;-72
2022/06/07 02:06:21;;;;;;;30.38;9.93;;;25.00;94.80;;;;;;5131475;28;20398;-72
2022/06/07 02:09:26;;;;;;;29.02;9.63;;;25.10;94.70;;;;;;5131138;28;20054;-72
2022/06/07 02:12:31;;;;;;;33.75;10.48;;;25.10;94.70;;;;;;5133291;27;20058;-72
2022/06/07 02:15:36;;;;;;;31.10;11.10;;;25.10;94.50;;;;;;5135583;27;20046;-72
2022/06/07 02:18:40;;;;;;;28.25;10.02;;;25.00;94.50;;;;;;5135531;27;20053;-72
2022/06/07 02:21:50;;;;;;;32.53;10.80;;;24.80;95.20;;;;;;5135887;27;20058;-72
2022/06/07 02:24:54;;;;;;;25.95;9.98;;;24.70;95.00;;;;;;5136079;27;20505;-72
2022/06/07 02:27:58;;;;;;;28.55;9.68;;;24.70;94.70;;;;;;5136109;27;20042;-72
2022/06/07 02:31:04;;;;;;;24.27;9.70;;;24.70;94.60;;;;;;5135079;27;20100;-72
2022/06/07 02:34:09;;;;;;;25.38;9.13;;;24.70;94.30;;;;;;5135282;27;20050;-72
2022/06/07 02:37:14;;;;;;;22.27;9.90;;;24.60;94.10;;;;;;5136320;27;20497;-72
2022/06/07 02:40:19;;;;;;;28.80;10.45;;;24.50;93.90;;;;;;5136044;27;20046;-72
2022/06/07 02:43:23;;;;;;;28.33;9.88;;;24.30;93.80;;;;;;5136072;27;20042;-72
2022/06/07 02:46:27;;;;;;;23.15;8.90;;;24.10;93.90;;;;;;5136004;27;20043;-72
2022/06/07 02:49:31;;;;;;;27.25;9.48;;;24.00;93.80;;;;;;5134430;27;20038;-72
2022/06/07 02:52:36;;;;;;;26.50;10.13;;;24.00;93.60;;;;;;5134701;27;20073;-72
2022/06/07 02:56:00;;;;;;;24.95;9.88;;;24.00;93.20;;;;;;5135680;27;20042;-72
2022/06/07 02:59:05;;;;;;;26.20;10.45;;;23.70;93.60;;;;;;5135227;27;20042;-72
2022/06/07 03:02:09;;;;;;;28.35;9.48;;;23.50;93.60;;;;;;5134843;27;20053;-72
2022/06/07 03:05:13;;;;;;;29.73;9.20;;;23.50;93.60;;;;;;5134846;27;20042;-72
2022/06/07 03:08:26;;;;;;;27.05;9.80;;;23.60;93.30;;;;;;5134967;27;20046;-72
2022/06/07 03:11:35;;;;;;;23.63;9.27;;;23.60;93.10;;;;;;5134497;27;20038;-72
2022/06/07 03:14:40;;;;;;;26.67;9.35;;;23.70;92.80;;;;;;5134472;27;20041;-72
2022/06/07 03:17:45;;;;;;;31.40;10.02;;;23.80;92.90;;;;;;5134375;27;20066;-72
2022/06/07 03:20:52;;;;;;;30.98;9.88;;;23.60;92.70;;;;;;5134140;27;20120;-72
2022/06/07 03:23:57;;;;;;;22.85;9.30;;;23.50;93.00;;;;;;5133297;27;20042;-72
2022/06/07 03:27:02;;;;;;;30.33;11.00;;;23.40;93.20;;;;;;5134734;27;20630;-72
2022/06/07 03:30:09;;;;;;;28.52;12.38;;;23.20;93.20;;;;;;5122272;27;20042;-72
2022/06/07 03:33:14;;;;;;;25.65;12.02;;;23.10;93.70;;;;;;5133746;27;20058;-72
2022/06/07 03:36:26;;;;;;;32.72;11.95;;;23.10;93.30;;;;;;5133912;27;20046;-72
2022/06/07 03:39:30;;;;;;;26.35;10.75;;;23.10;93.30;;;;;;5133858;27;20509;-72
2022/06/07 03:42:38;;;;;;;25.83;10.63;;;23.00;92.90;;;;;;5133634;27;20104;-72
2022/06/07 03:45:43;;;;;;;29.83;10.07;;;23.00;93.00;;;;;;5133509;27;20051;-72
2022/06/07 03:48:56;;;;;;;26.65;9.45;;;23.10;92.80;;;;;;5133556;27;20038;-72
2022/06/07 03:52:02;;;;;;;21.95;9.50;;;23.10;92.40;;;;;;5133255;27;20046;-72
2022/06/07 03:55:09;;;;;;;22.23;8.90;;;23.20;92.30;;;;;;5133136;27;20046;-72
2022/06/07 03:58:34;;;;;;;24.67;9.60;;;23.10;92.50;;;;;;5134323;27;20038;-72
2022/06/07 04:01:38;;;;;;;25.42;9.32;;;23.00;92.40;;;;;;5133064;27;20054;-72
2022/06/07 04:04:43;;;;;;;30.20;9.25;;;23.00;92.80;;;;;;5133507;27;20038;-72
2022/06/07 04:11:12;;;;;;;30.02;9.55;;;23.10;92.60;;;;;;5132747;27;20042;-72
2022/06/07 04:14:25;;;;;;;30.73;8.73;;;23.00;93.10;;;;;;5122310;27;20042;-72
2022/06/07 04:17:30;;;;;;;33.47;8.65;;;23.00;92.90;;;;;;5133204;27;20046;-72
2022/06/07 06:46:31;;;;;;;34.42;7.70;;;30.40;77.30;;;;;;5149349;27;20416;-66
2022/06/07 06:49:39;;;;;;;28.08;7.93;;;31.20;76.50;;;;;;5149174;27;20042;-68
2022/06/07 06:52:47;;;;;;;30.08;7.45;;;31.20;75.60;;;;;;5148999;27;20054;-71
2022/06/07 06:55:51;;;;;;;29.48;8.02;;;31.20;75.70;;;;;;5148398;27;20061;-69
2022/06/07 06:58:56;;;;;;;28.35;7.57;;;31.40;75.00;;;;;;5149001;27;20042;-70
2022/06/07 07:02:01;;;;;;;25.85;7.32;;;31.60;74.40;;;;;;5148484;27;20046;-69
2022/06/07 07:05:16;;;;;;;24.60;7.43;;;31.90;73.80;;;;;;5148700;27;20042;-70
2022/06/07 07:08:25;;;;;;;30.58;7.32;;;32.00;73.40;;;;;;5148210;27;20116;-68
2022/06/07 07:11:37;;;;;;;21.05;5.90;;;32.00;73.20;;;;;;5148313;27;20049;-68
2022/06/07 07:14:43;;;;;;;22.23;6.88;;;32.10;72.70;;;;;;5148112;27;20054;-70
2022/06/07 07:17:53;;;;;;;26.20;5.97;;;32.10;72.70;;;;;;5136715;27;20058;-68
2022/06/07 07:21:03;;;;;;;31.27;7.18;;;32.20;72.20;;;;;;5148026;27;20045;-68
2022/06/07 07:24:11;;;;;;;22.95;7.60;;;32.10;72.50;;;;;;5136496;27;20046;-69
2022/06/07 07:27:19;;;;;;;20.50;6.47;;;31.90;72.70;;;;;;5148023;27;20042;-69
2022/06/07 07:30:24;;;;;;;20.05;6.75;;;31.70;73.40;;;;;;5148112;27;20054;-69
2022/06/07 07:33:28;;;;;;;20.88;6.38;;;31.90;73.20;;;;;;5147708;27;20038;-73
2022/06/07 07:36:34;;;;;;;29.05;6.78;;;32.10;72.30;;;;;;5127315;28;20065;-69
2022/06/07 07:39:38;;;;;;;21.23;6.22;;;32.30;71.90;;;;;;5128315;28;20398;-71
2022/06/07 07:42:46;;;;;;;28.35;6.93;;;32.10;72.50;;;;;;5127250;28;20536;-70
2022/06/07 07:46:12;;;;;;;23.38;6.50;;;31.90;73.20;;;;;;5128378;27;20056;-68
2022/06/07 07:49:19;;;;;;;27.60;7.68;;;32.00;73.60;;;;;;5113432;28;20051;-66
2022/06/07 07:52:24;;;;;;;24.38;6.30;;;32.50;72.60;;;;;;5113084;28;20547;-68
2022/06/07 07:55:44;;;;;;;30.80;8.15;;;32.90;72.40;;;;;;5113141;28;20517;-66
2022/06/07 07:58:50;;;;;;;22.75;6.40;;;33.20;71.80;;;;;;5112811;28;20038;-67
2022/06/07 08:01:55;;;;;;;38.88;8.45;;;33.30;70.60;;;;;;5112765;28;20046;-65
2022/06/07 08:04:58;;;;;;;17.90;6.05;;;32.90;71.90;;;;;;5113330;28;20040;-67
2022/06/07 08:08:02;;;;;;;39.30;7.15;;;32.50;72.30;;;;;;5113117;28;20054;-67
2022/06/07 08:11:07;;;;;;;29.38;7.22;;;32.10;73.50;;;;;;5113897;28;20043;-69
2022/06/07 08:14:15;;;;;;;26.05;6.65;;;31.80;74.10;;;;;;5113767;28;20034;-71
2022/06/07 08:17:20;;;;;;;30.23;6.25;;;32.10;74.10;;;;;;5114074;28;20050;-69
2022/06/07 08:20:28;;;;;;;23.25;6.15;;;32.50;73.10;;;;;;5113668;28;20047;-66
2022/06/07 08:23:33;;;;;;;34.70;7.10;;;32.70;72.30;;;;;;5113708;28;20046;-67
2022/06/07 08:26:37;;;;;;;34.45;6.85;;;33.00;73.10;;;;;;5113720;28;20050;-68
2022/06/07 08:29:42;;;;;;;29.55;6.32;;;33.30;72.30;;;;;;5113481;28;20042;-71
2022/06/07 08:32:46;;;;;;;36.60;7.38;;;33.50;72.20;;;;;;5113520;28;20046;-69
2022/06/07 08:39:13;;;;;;;19.83;6.85;;;33.70;71.30;;;;;;5113536;28;20059;-69
2022/06/07 08:42:31;;;;;;;25.10;6.65;;;33.80;70.90;;;;;;5112582;28;20050;-75
2022/06/07 08:45:42;;;;;;;22.58;6.13;;;33.70;70.70;;;;;;5112076;28;20054;-71
2022/06/07 08:48:46;;;;;;;21.75;5.55;;;33.90;71.20;;;;;;5113481;28;20047;-67
2022/06/07 08:51:57;;;;;;;17.58;5.80;;;34.00;71.10;;;;;;5113398;28;20068;-70
2022/06/07 08:55:11;;;;;;;30.15;6.35;;;33.90;70.40;;;;;;5112787;28;20054;-68
2022/06/07 08:58:26;;;;;;;23.23;6.18;;;33.90;70.90;;;;;;5111757;28;20042;-68
2022/06/07 09:01:47;;;;;;;16.67;4.97;;;33.90;71.10;;;;;;5100716;28;20043;-68
2022/06/07 09:04:51;;;;;;;19.60;5.45;;;34.00;70.70;;;;;;5112299;28;20051;-70
2022/06/07 09:07:55;;;;;;;28.67;6.05;;;34.10;70.40;;;;;;5112633;28;20418;-71
2022/06/07 09:14:47;;;;;;;18.42;5.60;;;34.10;69.70;;;;;;5112555;28;20046;-70
2022/06/07 09:18:00;;;;;;;20.67;6.05;;;34.10;69.20;;;;;;5111900;28;20046;-72
2022/06/07 09:21:16;;;;;;;20.92;5.80;;;34.10;69.40;;;;;;5111693;28;20537;-70
2022/06/07 09:24:34;;;;;;;23.20;5.45;;;34.20;69.40;;;;;;5111887;28;20506;-71
2022/06/07 09:27:38;;;;;;;15.45;4.20;;;34.10;69.30;;;;;;5111255;28;20035;-72
2022/06/07 09:30:45;;;;;;;26.35;5.93;;;34.30;68.40;;;;;;5112085;28;20062;-70
2022/06/07 09:33:53;;;;;;;22.27;6.55;;;34.30;68.40;;;;;;5099652;28;20051;-71
2022/06/07 09:37:04;;;;;;;26.10;5.80;;;34.40;68.60;;;;;;5112092;28;20111;-71
2022/06/07 09:40:23;;;;;;;32.22;6.28;;;34.30;68.60;;;;;;5112350;28;20046;-70
2022/06/07 09:43:41;;;;;;;20.13;5.45;;;34.30;69.00;;;;;;5112076;28;20502;-70
2022/06/07 09:46:59;;;;;;;22.58;6.07;;;34.30;68.50;;;;;;5111086;28;20055;-70
2022/06/07 09:50:32;;;;;;;25.42;5.70;;;34.20;68.80;;;;;;5112395;28;20509;-72
2022/06/07 09:53:40;;;;;;;17.90;5.85;;;34.20;69.50;;;;;;5111262;28;20054;-70
2022/06/07 09:57:03;;;;;;;26.55;7.05;;;34.30;69.80;;;;;;5111970;28;20047;-69
2022/06/07 10:00:41;;;;;;;24.67;6.30;;;34.30;70.10;;;;;;5110861;28;20391;-70
2022/06/07 10:03:56;;;;;;;23.88;5.85;;;34.30;70.70;;;;;;5110902;28;20047;-68
2022/06/07 10:07:06;;;;;;;22.02;6.93;;;34.30;69.80;;;;;;5111548;28;20043;-70
2022/06/07 10:10:13;;;;;;;31.25;6.68;;;34.20;69.40;;;;;;5111665;28;20561;-69
2022/06/07 10:13:58;;;;;;;17.08;5.72;;;34.10;69.60;;;;;;5111655;28;20062;-71
2022/06/07 10:17:14;;;;;;;21.95;5.63;;;34.10;70.10;;;;;;5110719;28;20058;-69
2022/06/07 10:20:25;;;;;;;19.52;4.93;;;34.00;70.20;;;;;;5111599;28;20038;-68
2022/06/07 10:23:52;;;;;;;19.70;5.70;;;33.90;70.70;;;;;;5110876;28;20046;-70
2022/06/07 10:27:13;;;;;;;55.80;7.90;;;33.80;71.00;;;;;;5115458;28;20493;-70
2022/06/07 10:30:47;;;;;;;17.15;5.60;;;33.70;70.10;;;;;;5111557;28;20386;-69
2022/06/07 10:34:14;;;;;;;23.88;5.10;;;33.70;69.90;;;;;;5111533;28;20051;-69
2022/06/07 10:37:48;;;;;;;22.88;5.55;;;33.70;69.80;;;;;;5098974;28;20053;-69
2022/06/07 10:41:10;;;;;;;34.08;5.53;;;33.70;70.60;;;;;;5111409;28;20055;-66
2022/06/07 10:44:38;;;;;;;19.88;5.53;;;33.70;71.20;;;;;;5111134;28;20046;-67
2022/06/07 10:48:02;;;;;;;27.88;5.45;;;33.60;69.90;;;;;;5098890;28;20073;-66
2022/06/07 10:54:49;;;;;;;18.27;4.70;;;33.40;71.50;;;;;;5111636;28;20047;-66
2022/06/07 10:58:20;;;;;;;21.33;5.10;;;33.30;72.00;;;;;;5110378;28;20402;-67
2022/06/07 11:01:37;;;;;;;23.13;5.10;;;33.20;72.30;;;;;;5111119;28;20051;-66
2022/06/07 11:11:47;;;;;;;31.42;5.43;;;33.00;73.10;;;;;;5111133;28;20395;-66
2022/06/07 11:15:02;;;;;;;20.63;5.20;;;32.90;72.30;;;;;;5110031;28;20050;-67
2022/06/07 11:18:26;;;;;;;22.80;6.53;;;32.80;73.10;;;;;;5110164;28;20046;-66
2022/06/07 11:21:36;;;;;;;19.58;4.70;;;32.70;72.40;;;;;;5113015;28;20047;-67
2022/06/07 11:25:18;;;;;;;36.55;5.90;;;32.70;72.30;;;;;;5114831;28;20043;-67
2022/06/07 11:28:42;;;;;;;12.57;4.60;;;32.60;71.70;;;;;;5114924;28;20047;-66
2022/06/07 11:31:46;;;;;;;22.75;5.20;;;32.60;73.10;;;;;;5115035;28;20058;-67
2022/06/07 11:34:50;;;;;;;22.45;6.07;;;32.60;73.70;;;;;;5114452;28;20433;-67
2022/06/07 11:37:54;;;;;;;17.52;5.20;;;32.50;75.30;;;;;;5113843;28;20043;-67
2022/06/07 11:41:38;;;;;;;28.58;5.90;;;32.50;74.70;;;;;;5114776;28;20043;-67
2022/06/07 11:44:42;;;;;;;21.02;5.03;;;32.50;74.30;;;;;;5073577;28;20059;-67
2022/06/07 11:47:46;;;;;;;21.30;4.82;;;32.40;75.10;;;;;;5114428;28;20031;-66
2022/06/07 11:51:15;;;;;;;17.13;5.05;;;32.40;75.10;;;;;;5114492;28;20046;-66
2022/06/07 11:54:29;;;;;;;14.07;4.72;;;32.30;75.50;;;;;;5113483;28;20050;-66
2022/06/07 11:57:39;;;;;;;17.73;4.90;;;32.30;74.50;;;;;;5114600;28;20062;-66
2022/06/07 12:00:47;;;;;;;44.25;8.35;;;32.30;74.70;;;;;;5113441;28;20554;-67
2022/06/07 12:04:28;;;;;;;22.60;5.45;;;32.30;75.00;;;;;;5114249;28;20054;-67
2022/06/07 12:07:38;;;;;;;19.80;4.43;;;32.20;74.40;;;;;;5113437;28;20047;-67
2022/06/07 12:10:54;;;;;;;17.17;5.10;;;32.20;74.00;;;;;;5114056;28;20062;-67
2022/06/07 12:14:01;;;;;;;22.90;5.40;;;32.20;73.70;;;;;;5114090;28;20043;-67
2022/06/07 12:17:31;;;;;;;28.45;5.72;;;32.30;75.00;;;;;;5113518;28;20058;-66
2022/06/07 12:20:39;;;;;;;28.13;5.50;;;32.30;74.60;;;;;;5114086;28;20058;-66
2022/06/07 12:23:45;;;;;;;23.10;5.05;;;32.30;74.20;;;;;;5113452;28;20046;-67
2022/06/07 12:26:52;;;;;;;20.48;4.78;;;32.20;74.20;;;;;;5113623;28;20058;-68
2022/06/07 12:30:18;;;;;;;15.25;4.60;;;32.20;74.40;;;;;;5113870;28;20070;-69
2022/06/07 12:33:28;;;;;;;21.85;5.43;;;32.10;74.30;;;;;;5112753;28;20043;-68
2022/06/07 12:36:39;;;;;;;21.88;5.57;;;32.00;74.30;;;;;;5112275;28;20059;-70
2022/06/07 12:39:53;;;;;;;20.02;5.15;;;32.00;74.30;;;;;;5113468;28;20051;-68
2022/06/07 12:42:57;;;;;;;18.48;5.07;;;31.90;74.20;;;;;;5113357;28;20039;-68
2022/06/07 12:46:18;;;;;;;16.92;4.72;;;31.90;73.60;;;;;;5100558;28;20121;-69
2022/06/07 12:49:39;;;;;;;;;;;31.90;75.00;;;;;;5113019;28;20047;-69
2022/06/07 12:52:48;;;;;;;;;;;31.90;75.90;;;;;;5113781;28;19934;-69
2022/06/07 12:56:10;;;;;;;19.02;4.72;;;31.90;75.40;;;;;;5112267;28;20393;-68
2022/06/07 12:59:23;;;;;;;17.45;4.55;;;31.80;75.80;;;;;;5112937;28;20121;-68
2022/06/07 13:02:40;;;;;;;18.65;4.53;;;31.80;75.60;;;;;;5113254;28;20110;-68
2022/06/07 13:05:43;;;;;;;19.10;4.80;;;31.70;75.30;;;;;;5111943;28;20055;-69
2022/06/07 13:09:06;;;;;;;22.92;5.93;;;31.60;74.40;;;;;;5111902;28;20046;-68
2022/06/07 13:12:20;;;;;;;16.77;4.78;;;31.50;75.70;;;;;;5112996;28;20035;-71
2022/06/07 13:15:37;;;;;;;15.20;4.60;;;31.50;75.90;;;;;;5112736;28;20059;-69
2022/06/07 13:19:01;;;;;;;21.00;4.68;;;31.50;76.00;;;;;;5112787;28;20046;-68
2022/06/07 13:22:17;;;;;;;16.83;4.30;;;31.50;75.90;;;;;;5112659;28;20042;-69
2022/06/07 13:25:31;;;;;;;13.27;4.38;;;31.40;76.50;;;;;;5111881;28;20050;-68
2022/06/07 13:28:36;;;;;;;17.75;4.10;;;31.40;76.50;;;;;;5112781;28;20390;-68
2022/06/07 13:31:49;;;;;;;24.50;5.45;;;31.40;76.30;;;;;;5112387;28;20062;-67
2022/06/07 13:34:58;;;;;;;20.88;5.43;;;31.40;76.40;;;;;;5112419;28;20050;-68
2022/06/07 13:38:05;;;;;;;17.35;4.47;;;31.40;76.70;;;;;;5112267;28;20046;-69
2022/06/07 13:41:18;;;;;;;19.27;5.32;;;31.30;76.30;;;;;;5112407;28;20038;-68
2022/06/07 13:44:53;;;;;;;24.85;4.65;;;31.30;77.50;;;;;;5110715;28;20054;-68
2022/06/07 13:48:00;;;;;;;14.10;5.10;;;31.20;77.70;;;;;;5112389;28;20046;-67
2022/06/07 13:54:27;;;;;;;15.73;4.40;;;31.10;78.30;;;;;;5112119;28;20046;-72
2022/06/07 13:57:31;;;;;;;24.65;4.80;;;31.10;78.00;;;;;;5111880;28;20055;-69
2022/06/07 14:00:35;;;;;;;25.88;5.25;;;31.00;78.40;;;;;;5111773;28;20047;-69
2022/06/07 14:03:48;;;;;;;21.42;4.28;;;31.00;77.60;;;;;;5111683;28;20043;-70
2022/06/07 14:06:52;;;;;;;18.23;3.95;;;31.00;78.00;;;;;;5112116;28;20051;-69
2022/06/07 14:09:57;;;;;;;17.15;3.95;;;30.90;78.60;;;;;;5111576;28;20612;-70
2022/06/07 14:13:01;;;;;;;16.63;4.38;;;30.90;78.30;;;;;;5111744;28;20070;-69
2022/06/07 14:16:05;;;;;;;13.38;4.25;;;30.80;79.00;;;;;;5111459;28;20193;-71
2022/06/07 14:19:14;;;;;;;15.15;4.40;;;30.80;78.70;;;;;;5110925;28;20051;-69
2022/06/07 14:22:29;;;;;;;13.07;4.05;;;30.80;78.20;;;;;;5110918;28;20050;-69
2022/06/07 14:25:36;;;;;;;18.10;4.63;;;30.70;78.00;;;;;;5111558;28;20051;-70
2022/06/07 14:28:41;;;;;;;18.17;3.53;;;30.60;79.20;;;;;;5110796;28;20034;-67
2022/06/07 14:31:48;;;;;;;15.48;3.83;;;30.70;78.90;;;;;;5111599;28;20503;-68
2022/06/07 14:34:56;;;;;;;26.80;4.50;;;30.70;78.90;;;;;;5110208;28;20034;-67
2022/06/07 14:38:02;;;;;;;29.45;5.47;;;30.70;78.90;;;;;;5111925;28;20050;-68
2022/06/07 14:41:09;;;;;;;19.38;4.40;;;30.60;79.50;;;;;;5111746;28;20043;-69
2022/06/07 14:44:15;;;;;;;17.75;3.83;;;30.60;79.20;;;;;;5111345;28;20046;-72
2022/06/07 14:47:23;;;;;;;14.85;3.70;;;30.80;78.20;;;;;;5111820;28;20367;-66
2022/06/07 14:50:28;;;;;;;27.00;4.38;;;31.90;77.10;;;;;;5111328;28;20039;-69
2022/06/07 14:53:32;;;;;;;23.58;3.58;;;32.90;74.00;;;;;;5111299;28;20047;-66
2022/06/07 14:56:37;;;;;;;15.50;3.30;;;33.50;71.30;;;;;;5111986;28;20062;-67
2022/06/07 14:59:41;;;;;;;19.17;3.60;;;33.70;70.00;;;;;;5114839;28;20046;-68
2022/06/07 15:02:49;;;;;;;17.50;3.38;;;33.50;70.20;;;;;;5113998;28;20510;-67
2022/06/07 15:05:54;;;;;;;23.58;4.13;;;33.40;70.30;;;;;;5114073;28;20050;-68
2022/06/07 15:08:58;;;;;;;11.93;2.90;;;33.70;69.40;;;;;;5114813;28;20043;-66
2022/06/07 15:12:03;;;;;;;23.85;4.75;;;33.90;68.80;;;;;;5113731;28;20225;-67
2022/06/07 15:15:08;;;;;;;10.68;3.50;;;34.10;67.30;;;;;;5114463;28;20043;-67
2022/06/07 15:18:15;;;;;;;17.88;3.42;;;34.10;68.00;;;;;;5114285;28;20062;-65
2022/06/07 15:21:21;;;;;;;16.08;3.63;;;33.70;67.90;;;;;;5114398;28;20050;-67
2022/06/07 15:24:26;;;;;;;15.27;3.65;;;33.70;69.00;;;;;;5113337;28;20045;-67
2022/06/07 15:27:30;;;;;;;21.00;4.45;;;33.60;68.40;;;;;;5114191;28;20502;-67
2022/06/07 15:30:40;;;;;;;45.00;7.55;;;33.40;69.40;;;;;;5114143;28;20038;-68
2022/06/07 15:33:46;;;;;;;13.85;2.78;;;33.50;68.00;;;;;;5113797;28;20047;-68
2022/06/07 15:36:50;;;;;;;12.52;3.20;;;33.30;69.00;;;;;;5113774;28;20054;-66
2022/06/07 15:39:57;;;;;;;18.13;3.97;;;33.20;68.60;;;;;;5113052;28;20058;-67
2022/06/07 15:43:01;;;;;;;15.57;3.15;;;33.20;68.00;;;;;;5114230;28;20058;-73
2022/06/07 15:46:05;;;;;;;22.73;4.88;;;33.20;68.40;;;;;;5100936;28;20056;-68
2022/06/07 15:49:09;;;;;;;11.80;3.10;;;33.20;68.40;;;;;;5113585;28;20054;-68
2022/06/07 15:52:13;;;;;;;11.80;3.92;;;33.20;67.50;;;;;;5113754;28;20458;-68
2022/06/07 15:55:17;;;;;;;22.88;3.92;;;33.10;67.90;;;;;;5113732;28;20141;-67
2022/06/07 16:01:45;;;;;;;17.85;3.15;;;33.30;67.40;;;;;;5113473;28;20058;-67
2022/06/07 16:04:49;;;;;;;16.25;3.47;;;33.30;68.20;;;;;;5113144;28;20046;-69
2022/06/07 16:07:54;;;;;;;19.88;3.58;;;33.10;69.00;;;;;;5111841;28;20050;-69
2022/06/07 16:10:58;;;;;;;19.35;4.22;;;33.30;68.30;;;;;;5113538;28;20042;-69
2022/06/07 16:14:03;;;;;;;19.30;3.47;;;33.40;67.60;;;;;;5113106;28;20046;-68
2022/06/07 16:17:07;;;;;;;14.80;3.58;;;33.30;67.10;;;;;;5112164;28;20055;-69
2022/06/07 16:20:13;;;;;;;20.50;3.58;;;33.30;67.90;;;;;;5111998;28;20050;-69
2022/06/07 16:23:17;;;;;;;17.95;3.97;;;33.10;68.10;;;;;;5112021;28;20039;-70
2022/06/07 16:26:22;;;;;;;12.02;3.15;;;32.90;68.30;;;;;;5113173;28;20034;-68
2022/06/07 16:36:22;;;;;;;20.08;4.00;;;32.30;68.50;;;;;;5111954;28;20529;-67
2022/06/07 16:39:28;;;;;;;16.15;4.45;;;31.60;70.30;;;;;;5112347;28;20043;-68
2022/06/07 16:42:35;;;;;;;15.35;3.47;;;31.30;71.40;;;;;;5112794;28;20585;-68
2022/06/07 16:45:39;;;;;;;12.60;3.72;;;31.20;71.50;;;;;;5111373;28;20662;-67
2022/06/07 16:48:45;;;;;;;19.85;3.65;;;31.00;71.80;;;;;;5112502;28;20054;-68
2022/06/07 16:51:52;;;;;;;13.90;4.30;;;30.80;72.40;;;;;;5111716;28;20039;-68
2022/06/07 16:54:56;;;;;;;18.42;4.88;;;30.70;72.60;;;;;;5112312;28;20409;-68
2022/06/07 16:58:00;;;;;;;14.25;4.95;;;30.60;73.20;;;;;;5112420;28;20046;-68
2022/06/07 17:01:05;;;;;;;14.65;4.30;;;30.40;73.60;;;;;;5111901;28;20035;-68
2022/06/07 17:04:11;;;;;;;22.50;4.30;;;30.30;73.30;;;;;;5110999;28;20046;-72
2022/06/07 17:07:17;;;;;;;23.98;5.13;;;30.20;74.50;;;;;;5112123;28;20148;-71
2022/06/07 17:10:22;;;;;;;19.52;4.55;;;30.00;75.70;;;;;;5111814;28;20132;-72
2022/06/07 17:13:28;;;;;;;16.67;4.95;;;29.90;75.50;;;;;;5111949;28;20063;-71
2022/06/07 17:16:34;;;;;;;22.25;5.30;;;29.80;75.90;;;;;;5111091;28;20502;-71
2022/06/07 17:19:37;;;;;;;40.95;15.02;;;29.80;76.90;;;;;;5111214;28;20042;-71
2022/06/07 17:22:42;;;;;;;18.17;5.10;;;29.70;76.70;;;;;;5111071;28;20051;-71
2022/06/07 17:25:46;;;;;;;22.95;5.13;;;29.60;77.90;;;;;;5110910;28;20050;-71
2022/06/07 17:28:50;;;;;;;21.38;5.07;;;29.50;77.90;;;;;;5112058;28;20042;-72
2022/06/07 17:31:54;;;;;;;20.52;5.88;;;29.40;78.40;;;;;;5110245;28;20050;-71
2022/06/07 17:34:58;;;;;;;20.20;5.88;;;29.40;78.70;;;;;;5111335;28;20039;-71
2022/06/07 17:38:04;;;;;;;23.45;4.95;;;29.30;78.70;;;;;;5111616;28;20165;-71
2022/06/07 17:41:09;;;;;;;18.50;5.25;;;29.20;79.20;;;;;;5110578;28;20042;-71
2022/06/07 17:44:13;;;;;;;22.27;5.30;;;29.10;79.50;;;;;;5099004;28;20051;-72
2022/06/07 17:47:18;;;;;;;19.08;5.57;;;29.10;79.60;;;;;;5110662;28;20042;-71
2022/06/07 17:50:25;;;;;;;19.85;5.97;;;29.10;80.10;;;;;;5110651;28;20043;-71
2022/06/07 17:53:30;;;;;;;21.23;5.45;;;29.00;80.10;;;;;;5111499;28;20039;-70
2022/06/07 17:56:34;;;;;;;17.80;5.30;;;28.90;80.40;;;;;;5110668;28;20062;-72
2022/06/07 17:59:43;;;;;;;17.23;4.80;;;28.90;80.40;;;;;;5111426;28;20042;-72
2022/06/07 18:02:47;;;;;;;16.92;5.30;;;28.90;80.20;;;;;;5110049;28;20047;-71
2022/06/07 18:05:52;;;;;;;19.13;5.68;;;28.80;80.30;;;;;;5098659;28;20051;-72
2022/06/07 18:08:57;;;;;;;27.55;6.07;;;28.80;79.80;;;;;;5111041;28;20634;-72
2022/06/07 18:12:01;;;;;;;26.52;5.20;;;28.70;79.90;;;;;;5110910;28;20050;-72
2022/06/07 18:15:06;;;;;;;26.77;5.97;;;28.60;79.70;;;;;;5110163;28;20050;-72
2022/06/07 18:18:13;;;;;;;18.48;5.15;;;28.60;79.70;;;;;;5111162;28;20130;-72
2022/06/07 18:21:18;;;;;;;19.60;4.80;;;28.50;79.80;;;;;;5110809;28;20039;-71
2022/06/07 18:24:22;;;;;;;21.02;4.93;;;28.50;79.60;;;;;;5109714;28;20513;-72
2022/06/07 18:27:26;;;;;;;24.50;5.28;;;28.50;80.00;;;;;;5098342;28;20046;-72
2022/06/07 18:30:33;;;;;;;20.15;4.63;;;28.40;80.20;;;;;;5110757;28;20043;-72
2022/06/07 18:33:36;;;;;;;24.25;5.65;;;28.40;80.60;;;;;;5110785;28;20034;-72
2022/06/07 18:36:41;;;;;;;14.02;4.97;;;28.30;80.50;;;;;;5109677;28;20051;-72
2022/06/07 18:39:45;;;;;;;20.98;6.80;;;28.30;80.70;;;;;;5111017;28;20042;-72
2022/06/07 18:42:50;;;;;;;23.98;5.95;;;28.30;80.70;;;;;;5110524;28;20522;-71
2022/06/07 18:45:54;;;;;;;19.42;4.97;;;28.30;80.60;;;;;;5111160;28;20055;-71
2022/06/07 18:48:58;;;;;;;24.35;5.68;;;28.30;80.50;;;;;;5109840;28;20043;-71
2022/06/07 18:52:06;;;;;;;17.77;4.80;;;28.20;80.40;;;;;;5110437;28;20391;-71
2022/06/07 18:55:19;;;;;;;18.45;5.82;;;28.10;80.60;;;;;;5109776;28;20047;-71
2022/06/07 18:58:24;;;;;;;19.83;5.22;;;28.10;80.50;;;;;;5110647;28;20054;-71
2022/06/07 19:01:31;;;;;;;26.42;5.53;;;28.10;81.00;;;;;;5109625;28;20494;-71
2022/06/07 19:04:35;;;;;;;27.08;6.10;;;28.00;81.30;;;;;;5110152;28;20050;-71
2022/06/07 19:07:39;;;;;;;14.40;6.05;;;28.00;81.10;;;;;;5109758;28;20043;-71
2022/06/07 19:10:44;;;;;;;18.20;6.20;;;28.00;81.10;;;;;;5110292;28;20050;-71
2022/06/07 19:13:48;;;;;;;19.05;6.45;;;28.00;81.40;;;;;;5109647;28;20042;-71
2022/06/07 19:16:53;;;;;;;23.50;5.60;;;27.90;81.70;;;;;;5110226;28;20522;-71
2022/06/07 19:19:57;;;;;;;17.38;5.55;;;27.90;82.50;;;;;;5110401;28;20043;-71